createdAt,value
2018-12-15T00:01:25.941Z,26.37
2018-12-15T00:03:53.400Z,28.20
2018-12-15T00:06:20.839Z,23.37
2018-12-15T00:08:48.286Z,30.23
2018-12-15T00:11:15.727Z,26.37
2018-12-15T00:13:43.287Z,31.70
2018-12-15T00:16:10.756Z,30.00
2018-12-15T00:18:38.188Z,27.87
2018-12-15T00:21:05.644Z,29.73
2018-12-15T00:23:33.092Z,26.93
2018-12-15T00:26:01.227Z,24.90
2018-12-15T00:28:28.683Z,27.97
2018-12-15T00:30:56.111Z,25.53
2018-12-15T00:33:23.687Z,25.73
2018-12-15T00:35:51.123Z,29.90
2018-12-15T00:38:18.609Z,28.70
2018-12-15T00:40:46.050Z,28.07
2018-12-15T00:43:13.500Z,31.07
2018-12-15T00:45:40.940Z,28.50
2018-12-15T00:48:08.381Z,26.87
2018-12-15T00:50:35.828Z,23.77
2018-12-15T00:53:03.292Z,22.80
2018-12-15T00:55:30.716Z,23.93
2018-12-15T00:57:58.160Z,25.37
2018-12-15T01:00:25.592Z,22.37
2018-12-15T01:02:53.064Z,25.70
2018-12-15T01:05:20.544Z,30.67
2018-12-15T01:07:47.985Z,25.40
2018-12-15T01:10:15.412Z,23.40
2018-12-15T01:12:42.861Z,25.30
2018-12-15T01:15:10.293Z,23.00
2018-12-15T01:17:37.748Z,22.30
2018-12-15T01:20:05.426Z,31.60
2018-12-15T01:22:32.869Z,26.53
2018-12-15T01:25:00.312Z,31.27
2018-12-15T01:27:27.755Z,29.57
2018-12-15T01:29:55.188Z,24.93
2018-12-15T01:32:22.640Z,33.67
2018-12-15T01:34:50.072Z,30.00
2018-12-15T01:37:17.530Z,23.83
2018-12-15T01:39:44.974Z,25.33
2018-12-15T01:42:12.435Z,34.30
2018-12-15T01:44:39.878Z,26.03
2018-12-15T01:47:07.323Z,25.93
2018-12-15T01:49:34.752Z,28.93
2018-12-15T01:52:02.200Z,23.23
2018-12-15T01:54:29.633Z,30.47
2018-12-15T01:56:57.080Z,30.00
2018-12-15T01:59:24.519Z,29.50
2018-12-15T02:01:51.985Z,27.27
2018-12-15T02:04:19.422Z,25.30
2018-12-15T02:06:46.850Z,32.00
2018-12-15T02:09:14.295Z,28.70
2018-12-15T02:11:41.751Z,29.10
2018-12-15T02:14:09.183Z,28.97
2018-12-15T02:16:36.624Z,26.97
2018-12-15T02:19:04.168Z,27.40
2018-12-15T02:21:31.618Z,27.60
2018-12-15T02:23:59.160Z,30.07
2018-12-15T02:26:26.594Z,34.27
2018-12-15T02:28:54.088Z,27.93
2018-12-15T02:31:21.529Z,31.97
2018-12-15T02:33:50.450Z,24.53
2018-12-15T02:36:17.933Z,24.97
2018-12-15T02:38:45.375Z,28.10
2018-12-15T02:41:12.808Z,27.03
2018-12-15T02:43:40.271Z,28.20
2018-12-15T02:46:07.705Z,24.93
2018-12-15T02:48:35.169Z,30.10
2018-12-15T02:51:02.622Z,24.70
2018-12-15T02:53:30.148Z,27.97
2018-12-15T02:55:58.647Z,27.00
2018-12-15T02:58:26.318Z,28.33
2018-12-15T03:00:53.771Z,25.70
2018-12-15T03:03:21.234Z,27.23
2018-12-15T03:05:48.757Z,24.43
2018-12-15T03:08:16.204Z,31.13
2018-12-15T03:10:43.636Z,24.97
2018-12-15T03:13:11.102Z,23.53
2018-12-15T03:15:38.549Z,29.57
2018-12-15T03:18:06.004Z,28.30
2018-12-15T03:20:33.443Z,20.50
2018-12-15T03:23:00.909Z,22.60
2018-12-15T03:25:28.343Z,21.43
2018-12-15T03:27:55.788Z,20.30
2018-12-15T03:30:23.231Z,20.97
2018-12-15T03:32:50.661Z,25.67
2018-12-15T03:35:18.182Z,29.03
2018-12-15T03:37:45.620Z,27.30
2018-12-15T03:40:13.055Z,23.80
2018-12-15T03:42:40.514Z,31.20
2018-12-15T03:45:08.031Z,25.17
2018-12-15T03:47:35.472Z,27.67
2018-12-15T03:50:02.939Z,31.03
2018-12-15T03:52:30.472Z,26.60
2018-12-15T03:54:58.116Z,25.20
2018-12-15T03:57:25.544Z,26.73
2018-12-15T03:59:53.032Z,24.60
2018-12-15T04:02:20.507Z,23.20
2018-12-15T04:04:48.088Z,30.50
2018-12-15T04:07:15.545Z,21.50
2018-12-15T04:09:43.005Z,25.47
2018-12-15T04:12:10.430Z,31.43
2018-12-15T04:14:37.880Z,27.23
2018-12-15T04:17:05.324Z,24.63
2018-12-15T04:19:32.772Z,24.73
2018-12-15T04:22:12.157Z,22.83
2018-12-15T04:24:39.617Z,26.53
2018-12-15T04:27:07.079Z,30.03
2018-12-15T04:29:34.526Z,22.07
2018-12-15T04:32:02.004Z,26.23
2018-12-15T04:34:29.661Z,22.00
2018-12-15T04:36:57.112Z,20.43
2018-12-15T04:39:24.596Z,27.00
2018-12-15T04:41:52.055Z,27.50
2018-12-15T04:44:19.488Z,26.23
2018-12-15T04:46:48.297Z,25.03
2018-12-15T04:49:15.734Z,19.30
2018-12-15T04:51:43.168Z,26.00
2018-12-15T04:54:10.628Z,25.03
2018-12-15T04:56:38.071Z,19.60
2018-12-15T04:59:05.540Z,15.57
2018-12-15T05:01:32.973Z,22.13
2018-12-15T05:04:00.430Z,25.67
2018-12-15T05:06:27.882Z,21.63
2018-12-15T05:08:55.322Z,19.10
2018-12-15T05:11:22.751Z,23.77
2018-12-15T05:13:50.188Z,25.67
2018-12-15T05:16:17.632Z,26.20
2018-12-15T05:18:45.066Z,23.03
2018-12-15T05:21:12.499Z,24.30
2018-12-15T05:23:39.937Z,22.00
2018-12-15T05:26:07.369Z,19.90
2018-12-15T05:28:34.817Z,24.87
2018-12-15T05:31:02.273Z,23.33
2018-12-15T05:33:29.722Z,23.97
2018-12-15T05:35:57.174Z,20.80
2018-12-15T05:38:24.616Z,22.53
2018-12-15T05:40:52.091Z,22.77
2018-12-15T05:43:19.534Z,23.33
2018-12-15T05:45:46.988Z,20.73
2018-12-15T05:48:14.436Z,23.67
2018-12-15T05:50:41.893Z,27.73
2018-12-15T05:53:09.395Z,26.67
2018-12-15T05:55:36.840Z,21.97
2018-12-15T05:58:04.277Z,17.43
2018-12-15T06:00:31.722Z,23.20
2018-12-15T06:02:59.165Z,23.47
2018-12-15T06:05:26.624Z,21.80
2018-12-15T06:07:54.056Z,25.77
2018-12-15T06:10:21.762Z,25.10
2018-12-15T06:12:49.207Z,22.83
2018-12-15T06:15:16.652Z,26.90
2018-12-15T06:17:44.092Z,22.20
2018-12-15T06:20:11.540Z,26.37
2018-12-15T06:22:39.008Z,22.90
2018-12-15T06:25:06.456Z,22.07
2018-12-15T06:27:33.889Z,26.80
2018-12-15T06:30:01.327Z,20.97
2018-12-15T06:32:28.785Z,26.10
2018-12-15T06:34:56.267Z,25.43
2018-12-15T06:37:23.720Z,25.57
2018-12-15T06:39:51.174Z,21.70
2018-12-15T06:42:18.607Z,23.27
2018-12-15T06:44:46.055Z,20.93
2018-12-15T06:47:13.584Z,29.47
2018-12-15T06:49:41.020Z,33.77
2018-12-15T06:52:08.454Z,26.93
2018-12-15T06:54:35.926Z,27.33
2018-12-15T06:57:03.403Z,27.13
2018-12-15T06:59:30.915Z,23.30
2018-12-15T07:01:58.360Z,22.17
2018-12-15T07:04:25.847Z,19.43
2018-12-15T07:06:53.371Z,23.50
2018-12-15T07:09:20.805Z,23.53
2018-12-15T07:11:48.339Z,21.67
2018-12-15T07:14:15.776Z,23.10
2018-12-15T07:16:43.219Z,21.87
2018-12-15T07:19:10.639Z,20.50
2018-12-15T07:21:38.119Z,25.70
2018-12-15T07:24:05.584Z,23.20
2018-12-15T07:26:33.031Z,25.70
2018-12-15T07:29:00.612Z,23.33
2018-12-15T07:31:28.080Z,22.93
2018-12-15T07:33:55.559Z,25.90
2018-12-15T07:36:23.034Z,25.67
2018-12-15T07:38:50.588Z,24.33
2018-12-15T07:41:18.037Z,25.73
2018-12-15T07:43:45.584Z,23.10
2018-12-15T07:46:13.024Z,24.63
2018-12-15T07:48:40.467Z,34.60
2018-12-15T07:51:08.128Z,27.10
2018-12-15T07:53:35.656Z,26.77
2018-12-15T07:56:03.161Z,27.00
2018-12-15T07:58:30.587Z,24.00
2018-12-15T08:00:58.045Z,23.93
2018-12-15T08:03:25.485Z,23.60
2018-12-15T08:05:52.932Z,22.53
2018-12-15T08:08:20.384Z,19.43
2018-12-15T08:10:53.448Z,23.90
2018-12-15T08:13:25.704Z,23.43
2018-12-15T08:15:53.186Z,21.57
2018-12-15T08:18:20.745Z,21.90
2018-12-15T08:20:48.200Z,23.30
2018-12-15T08:23:15.672Z,27.77
2018-12-15T08:25:43.105Z,30.13
2018-12-15T08:28:10.540Z,25.17
2018-12-15T08:30:37.997Z,24.43
2018-12-15T08:33:06.228Z,24.77
2018-12-15T08:35:33.682Z,24.00
2018-12-15T08:38:01.117Z,22.20
2018-12-15T08:40:28.555Z,23.37
2018-12-15T08:42:55.989Z,25.57
2018-12-15T08:45:23.451Z,25.77
2018-12-15T08:47:50.932Z,33.50
2018-12-15T08:50:18.469Z,31.90
2018-12-15T08:52:45.931Z,29.07
2018-12-15T08:55:13.383Z,30.50
2018-12-15T08:57:40.836Z,27.43
2018-12-15T09:00:08.266Z,27.13
2018-12-15T09:02:35.736Z,29.00
2018-12-15T09:05:03.181Z,27.97
2018-12-15T09:07:30.631Z,27.80
2018-12-15T09:09:58.082Z,25.63
2018-12-15T09:12:25.523Z,25.13
2018-12-15T09:14:53.027Z,23.93
2018-12-15T09:17:20.469Z,28.53
2018-12-15T09:19:47.916Z,24.17
2018-12-15T09:22:15.373Z,25.30
2018-12-15T09:24:42.805Z,26.17
2018-12-15T09:27:10.253Z,28.23
2018-12-15T09:29:37.685Z,25.00
2018-12-15T09:32:05.161Z,25.50
2018-12-15T09:34:32.595Z,27.20
2018-12-15T09:37:00.056Z,25.87
2018-12-15T09:39:27.507Z,29.73
2018-12-15T09:41:54.977Z,24.07
2018-12-15T09:44:22.403Z,25.43
2018-12-15T09:46:49.885Z,25.57
2018-12-15T09:49:17.961Z,29.57
2018-12-15T09:51:45.693Z,21.80
2018-12-15T09:54:13.146Z,27.13
2018-12-15T09:56:40.629Z,25.93
2018-12-15T09:59:08.082Z,20.23
2018-12-15T10:01:35.605Z,24.30
2018-12-15T10:04:03.097Z,28.37
2018-12-15T10:06:30.539Z,25.73
2018-12-15T10:08:58.012Z,20.67
2018-12-15T10:11:25.461Z,24.17
2018-12-15T10:13:52.926Z,24.40
2018-12-15T10:16:20.386Z,21.80
2018-12-15T10:18:47.901Z,24.37
2018-12-15T10:21:15.384Z,25.07
2018-12-15T10:23:42.857Z,25.17
2018-12-15T10:26:10.296Z,24.27
2018-12-15T10:28:37.783Z,22.13
2018-12-15T10:34:15.184Z,23.00
2018-12-15T10:36:42.639Z,22.23
2018-12-15T10:39:10.075Z,21.60
2018-12-15T10:41:37.531Z,21.33
2018-12-15T10:44:04.964Z,21.60
2018-12-15T10:46:32.418Z,19.70
2018-12-15T10:48:59.879Z,19.67
2018-12-15T10:51:27.334Z,20.80
2018-12-15T10:53:55.122Z,20.53
2018-12-15T10:56:22.579Z,22.33
2018-12-15T10:58:50.018Z,21.17
2018-12-15T11:01:21.729Z,22.07
2018-12-15T11:03:49.201Z,19.77
2018-12-15T11:06:16.627Z,24.33
2018-12-15T11:08:44.101Z,17.73
2018-12-15T11:11:11.530Z,19.20
2018-12-15T11:13:38.975Z,18.50
2018-12-15T11:16:06.432Z,21.23
2018-12-15T11:18:33.891Z,21.33
2018-12-15T11:21:01.337Z,18.30
2018-12-15T11:23:28.780Z,22.20
2018-12-15T11:25:56.225Z,24.37
2018-12-15T11:28:23.683Z,21.77
2018-12-15T11:30:51.123Z,21.53
2018-12-15T11:33:18.622Z,21.73
2018-12-15T11:35:46.171Z,19.40
2018-12-15T11:38:13.656Z,18.27
2018-12-15T11:40:41.108Z,20.53
2018-12-15T11:43:08.573Z,21.80
2018-12-15T11:45:36.060Z,20.00
2018-12-15T11:48:03.505Z,20.43
2018-12-15T11:50:30.944Z,21.87
2018-12-15T11:52:58.401Z,22.23
2018-12-15T11:55:25.866Z,21.70
2018-12-15T11:57:53.336Z,21.20
2018-12-15T12:00:20.814Z,18.53
2018-12-15T12:02:48.275Z,19.33
2018-12-15T12:05:15.731Z,19.63
2018-12-15T12:07:43.199Z,20.73
2018-12-15T12:10:10.969Z,17.07
2018-12-15T12:12:38.421Z,17.50
2018-12-15T12:15:05.892Z,17.80
2018-12-15T12:17:33.339Z,18.40
2018-12-15T12:20:00.801Z,18.63
2018-12-15T12:22:28.291Z,19.57
2018-12-15T12:24:55.738Z,19.17
2018-12-15T12:27:23.172Z,18.43
2018-12-15T12:29:50.625Z,18.20
2018-12-15T12:32:18.153Z,16.67
2018-12-15T12:34:45.600Z,20.37
2018-12-15T12:37:13.057Z,18.20
2018-12-15T12:39:40.509Z,17.40
2018-12-15T12:42:07.953Z,18.27
2018-12-15T12:44:35.409Z,19.13
2018-12-15T12:47:02.853Z,19.20
2018-12-15T12:49:30.309Z,17.90
2018-12-15T12:51:57.739Z,17.03
2018-12-15T12:54:25.193Z,18.47
2018-12-15T12:56:52.642Z,17.70
2018-12-15T12:59:20.092Z,20.53
2018-12-15T13:01:47.528Z,18.73
2018-12-15T13:04:14.975Z,20.73
2018-12-15T13:06:42.423Z,21.63
2018-12-15T13:09:09.877Z,19.87
2018-12-15T13:11:37.324Z,21.90
2018-12-15T13:14:04.957Z,20.13
2018-12-15T13:16:32.404Z,23.63
2018-12-15T13:18:59.839Z,21.53
2018-12-15T13:21:27.280Z,20.07
2018-12-15T13:23:54.728Z,21.03
2018-12-15T13:26:22.176Z,19.40
2018-12-15T13:28:49.723Z,15.83
2018-12-15T13:31:17.157Z,15.90
2018-12-15T13:33:44.612Z,21.60
2018-12-15T13:36:12.873Z,19.27
2018-12-15T13:38:40.450Z,19.60
2018-12-15T13:41:07.876Z,19.17
2018-12-15T13:43:35.316Z,18.53
2018-12-15T13:46:02.763Z,19.00
2018-12-15T13:48:30.231Z,19.73
2018-12-15T13:50:57.680Z,21.03
2018-12-15T13:53:25.135Z,18.37
2018-12-15T13:55:52.620Z,19.07
2018-12-15T13:58:20.061Z,20.63
2018-12-15T14:00:47.503Z,21.57
2018-12-15T14:03:15.070Z,17.87
2018-12-15T14:05:42.620Z,18.47
2018-12-15T14:08:10.080Z,20.17
2018-12-15T14:10:37.545Z,20.63
2018-12-15T14:13:04.986Z,22.27
2018-12-15T14:15:32.427Z,17.43
2018-12-15T14:17:59.864Z,17.33
2018-12-15T14:20:27.320Z,19.60
2018-12-15T14:22:54.755Z,18.73
2018-12-15T14:25:22.216Z,19.03
2018-12-15T14:27:49.640Z,22.03
2018-12-15T14:30:17.099Z,18.93
2018-12-15T14:32:44.528Z,19.93
2018-12-15T14:35:11.983Z,18.77
2018-12-15T14:37:39.416Z,18.03
2018-12-15T14:40:07.705Z,19.33
2018-12-15T14:42:35.160Z,21.90
2018-12-15T14:45:02.658Z,21.23
2018-12-15T14:47:30.100Z,19.60
2018-12-15T14:49:57.551Z,18.33
2018-12-15T14:52:25.020Z,20.65
2018-12-15T14:54:52.494Z,21.53
2018-12-15T14:57:21.886Z,18.30
2018-12-15T14:59:49.329Z,22.83
2018-12-15T15:02:16.825Z,20.97
2018-12-15T15:04:44.267Z,23.90
2018-12-15T15:07:11.701Z,19.80
2018-12-15T15:09:39.144Z,21.27
2018-12-15T15:12:06.596Z,21.00
2018-12-15T15:14:34.077Z,23.07
2018-12-15T15:17:01.524Z,23.47
2018-12-15T15:19:28.972Z,20.43
2018-12-15T15:21:56.419Z,18.30
2018-12-15T15:24:23.887Z,21.33
2018-12-15T15:26:51.318Z,22.30
2018-12-15T15:29:18.807Z,21.30
2018-12-15T15:31:46.245Z,21.87
2018-12-15T15:34:13.711Z,19.57
2018-12-15T15:36:41.146Z,25.27
2018-12-15T15:39:08.603Z,20.07
2018-12-15T15:41:36.092Z,21.90
2018-12-15T15:44:03.529Z,20.73
2018-12-15T15:46:30.986Z,21.17
2018-12-15T15:48:58.428Z,18.47
2018-12-15T15:51:25.896Z,21.23
2018-12-15T15:53:53.334Z,21.63
2018-12-15T15:56:20.788Z,20.57
2018-12-15T15:58:48.344Z,24.23
2018-12-15T16:01:15.841Z,20.53
2018-12-15T16:03:43.304Z,17.93
2018-12-15T16:06:10.768Z,20.97
2018-12-15T16:08:38.263Z,23.30
2018-12-15T16:11:05.735Z,23.40
2018-12-15T16:13:33.217Z,20.80
2018-12-15T16:16:00.788Z,20.20
2018-12-15T16:18:28.255Z,19.40
2018-12-15T16:20:55.770Z,21.63
2018-12-15T16:23:23.215Z,25.07
2018-12-15T16:25:50.668Z,23.60
2018-12-15T16:28:18.128Z,20.43
2018-12-15T16:30:45.587Z,22.03
2018-12-15T16:33:13.117Z,24.23
2018-12-15T16:35:40.555Z,22.93
2018-12-15T16:38:08.025Z,22.20
2018-12-15T16:40:35.467Z,22.73
2018-12-15T16:43:03.005Z,26.33
2018-12-15T16:45:30.472Z,21.00
2018-12-15T16:47:57.912Z,22.50
2018-12-15T16:50:25.385Z,27.43
2018-12-15T16:52:52.960Z,21.23
2018-12-15T16:55:20.417Z,22.13
2018-12-15T16:57:47.875Z,19.07
2018-12-15T17:00:15.420Z,24.13
2018-12-15T17:02:42.864Z,23.63
2018-12-15T17:05:10.344Z,23.40
2018-12-15T17:07:37.798Z,26.27
2018-12-15T17:10:06.281Z,24.50
2018-12-15T17:12:33.722Z,23.00
2018-12-15T17:15:01.192Z,22.33
2018-12-15T17:17:28.644Z,21.93
2018-12-15T17:19:56.080Z,21.10
2018-12-15T17:22:23.531Z,22.20
2018-12-15T17:24:50.979Z,23.93
2018-12-15T17:27:26.587Z,20.00
2018-12-15T17:29:54.264Z,22.67
2018-12-15T17:32:21.714Z,22.97
2018-12-15T17:34:49.171Z,25.73
2018-12-15T17:37:16.616Z,23.93
2018-12-15T17:39:44.077Z,26.77
2018-12-15T17:42:11.526Z,22.30
2018-12-15T17:44:38.988Z,23.33
2018-12-15T17:47:06.518Z,22.47
2018-12-15T17:49:33.937Z,22.03
2018-12-15T17:52:01.380Z,25.63
2018-12-15T17:54:28.837Z,23.67
2018-12-15T17:56:56.293Z,23.53
2018-12-15T17:59:23.764Z,24.97
2018-12-15T18:01:51.372Z,27.00
2018-12-15T18:04:18.846Z,24.00
2018-12-15T18:06:46.330Z,23.87
2018-12-15T18:09:13.785Z,24.40
2018-12-15T18:11:41.254Z,22.83
2018-12-15T18:14:08.724Z,22.83
2018-12-15T18:16:36.176Z,28.27
2018-12-15T18:19:03.657Z,29.13
2018-12-15T18:21:31.120Z,27.17
2018-12-15T18:23:58.588Z,26.90
2018-12-15T18:26:26.073Z,25.73
2018-12-15T18:28:53.509Z,28.97
2018-12-15T18:31:20.947Z,27.93
2018-12-15T18:33:48.402Z,26.87
2018-12-15T18:36:15.908Z,29.00
2018-12-15T18:38:43.360Z,28.47
2018-12-15T18:41:10.797Z,27.07
2018-12-15T18:43:38.264Z,29.73
2018-12-15T18:46:05.708Z,30.97
2018-12-15T18:48:33.145Z,32.60
2018-12-15T18:51:00.601Z,28.70
2018-12-15T18:53:28.039Z,28.53
2018-12-15T18:55:55.501Z,29.97
2018-12-15T18:58:22.930Z,31.67
2018-12-15T19:00:50.373Z,29.97
2018-12-15T19:03:17.828Z,25.17
2018-12-15T19:05:45.261Z,27.63
2018-12-15T19:08:12.709Z,25.60
2018-12-15T19:10:40.164Z,30.10
2018-12-15T19:13:07.608Z,29.03
2018-12-15T19:15:35.065Z,25.97
2018-12-15T19:18:02.517Z,25.87
2018-12-15T19:20:30.001Z,27.13
2018-12-15T19:22:57.554Z,25.90
2018-12-15T19:25:25.009Z,26.00
2018-12-15T19:27:52.465Z,28.13
2018-12-15T19:30:20.565Z,26.77
2018-12-15T19:32:48.266Z,26.33
2018-12-15T19:35:15.758Z,27.50
2018-12-15T19:37:43.207Z,26.27
2018-12-15T19:40:10.646Z,28.53
2018-12-15T19:42:38.197Z,26.70
2018-12-15T19:45:07.517Z,26.17
2018-12-15T19:47:35.477Z,25.97
2018-12-15T19:50:03.372Z,29.07
2018-12-15T19:52:30.872Z,29.77
2018-12-15T19:54:58.301Z,27.23
2018-12-15T19:57:25.753Z,25.40
2018-12-15T19:59:53.200Z,29.90
2018-12-15T20:02:20.653Z,27.90
2018-12-15T20:04:48.123Z,25.90
2018-12-15T20:07:15.680Z,28.43
2018-12-15T20:09:43.128Z,26.60
2018-12-15T20:12:10.575Z,31.73
2018-12-15T20:14:38.016Z,28.77
2018-12-15T20:17:05.472Z,29.07
2018-12-15T20:19:32.981Z,26.53
2018-12-15T20:22:00.467Z,25.70
2018-12-15T20:24:27.917Z,27.97
2018-12-15T20:26:55.346Z,29.70
2018-12-15T20:29:22.829Z,26.70
2018-12-15T20:31:50.303Z,25.67
2018-12-15T20:34:17.763Z,26.43
2018-12-15T20:36:45.210Z,25.67
2018-12-15T20:39:12.660Z,24.17
2018-12-15T20:41:40.114Z,27.63
2018-12-15T20:44:07.575Z,32.60
2018-12-15T20:46:35.006Z,27.37
2018-12-15T20:49:02.457Z,27.63
2018-12-15T20:51:29.894Z,26.63
2018-12-15T20:53:57.345Z,24.47
2018-12-15T20:56:24.794Z,22.37
2018-12-15T20:58:52.237Z,26.17
2018-12-15T21:01:20.020Z,24.57
2018-12-15T21:03:47.467Z,26.63
2018-12-15T21:06:14.923Z,28.77
2018-12-15T21:08:42.368Z,24.73
2018-12-15T21:11:09.812Z,23.10
2018-12-15T21:13:37.255Z,28.50
2018-12-15T21:16:04.708Z,20.53
2018-12-15T21:18:32.165Z,20.97
2018-12-15T21:20:59.616Z,24.77
2018-12-15T21:23:27.076Z,25.27
2018-12-15T21:25:54.528Z,21.70
2018-12-15T21:28:21.976Z,21.53
2018-12-15T21:30:49.499Z,23.23
2018-12-15T21:33:17.056Z,25.53
2018-12-15T21:35:44.480Z,22.43
2018-12-15T21:38:11.939Z,24.03
2018-12-15T21:40:39.384Z,23.43
2018-12-15T21:43:06.831Z,28.93
2018-12-15T21:45:34.359Z,22.67
2018-12-15T21:48:01.804Z,24.33
2018-12-15T21:50:29.250Z,25.63
2018-12-15T21:52:56.714Z,21.60
2018-12-15T21:55:24.271Z,22.23
2018-12-15T21:57:51.733Z,20.97
2018-12-15T22:00:19.169Z,23.13
2018-12-15T22:02:46.615Z,21.77
2018-12-15T22:05:14.051Z,24.27
2018-12-15T22:07:41.545Z,20.43
2018-12-15T22:10:08.974Z,22.97
2018-12-15T22:12:36.429Z,22.23
2018-12-15T22:15:04.851Z,19.10
2018-12-15T22:17:32.288Z,21.60
2018-12-15T22:19:59.727Z,21.77
2018-12-15T22:22:27.178Z,20.07
2018-12-15T22:24:54.664Z,22.00
2018-12-15T22:27:22.188Z,22.50
2018-12-15T22:29:49.645Z,24.90
2018-12-15T22:32:17.078Z,21.37
2018-12-15T22:34:44.545Z,24.13
2018-12-15T22:37:11.990Z,20.43
2018-12-15T22:39:39.447Z,21.90
2018-12-15T22:42:06.889Z,19.27
2018-12-15T22:44:34.344Z,21.80
2018-12-15T22:47:01.768Z,19.00
2018-12-15T22:49:29.211Z,22.73
2018-12-15T22:51:56.652Z,18.43
2018-12-15T22:54:24.111Z,22.87
2018-12-15T22:56:51.547Z,20.40
2018-12-15T22:59:18.987Z,20.00
2018-12-15T23:01:46.444Z,23.10
2018-12-15T23:04:14.455Z,22.13
2018-12-15T23:06:41.922Z,21.80
2018-12-15T23:09:09.371Z,21.70
2018-12-15T23:11:36.808Z,20.37
2018-12-15T23:14:04.267Z,19.57
2018-12-15T23:16:31.771Z,22.10
2018-12-15T23:18:59.228Z,21.37
2018-12-15T23:21:26.663Z,24.67
2018-12-15T23:23:54.110Z,21.53
2018-12-15T23:26:21.555Z,18.67
2018-12-15T23:28:49.037Z,25.33
2018-12-15T23:31:16.481Z,21.10
2018-12-15T23:33:43.925Z,23.43
2018-12-15T23:36:11.393Z,15.83
2018-12-15T23:38:38.864Z,17.87
2018-12-15T23:41:06.302Z,18.23
2018-12-15T23:43:33.774Z,19.80
2018-12-15T23:46:01.270Z,16.97
2018-12-15T23:48:28.724Z,20.50
2018-12-15T23:50:56.163Z,20.67
2018-12-15T23:53:23.608Z,20.17
2018-12-15T23:55:51.056Z,20.60
2018-12-15T23:58:18.507Z,21.17
